sensor_id;sensor_type;location;lat;lon;timestamp;P1;durP1;ratioP1;P2;durP2;ratioP2
69386;SDS011;56575;48.942;8.404;2023-05-10T00:00:26;2.38;;;1.10;;
69386;SDS011;56575;48.942;8.404;2023-05-10T00:02:51;1.83;;;0.93;;
69386;SDS011;56575;48.942;8.404;2023-05-10T00:05:17;1.80;;;0.85;;
69386;SDS011;56575;48.942;8.404;2023-05-10T00:07:42;2.40;;;1.00;;
69386;SDS011;56575;48.942;8.404;2023-05-10T00:10:09;2.13;;;1.30;;
69386;SDS011;56575;48.942;8.404;2023-05-10T00:12:35;1.88;;;1.00;;
69386;SDS011;56575;48.942;8.404;2023-05-10T00:15:01;2.00;;;0.97;;
69386;SDS011;56575;48.942;8.404;2023-05-10T00:17:26;2.73;;;1.00;;
69386;SDS011;56575;48.942;8.404;2023-05-10T00:19:51;6.07;;;1.30;;
69386;SDS011;56575;48.942;8.404;2023-05-10T00:22:17;2.67;;;1.20;;
69386;SDS011;56575;48.942;8.404;2023-05-10T00:24:42;2.65;;;1.52;;
69386;SDS011;56575;48.942;8.404;2023-05-10T00:27:08;2.47;;;1.43;;
69386;SDS011;56575;48.942;8.404;2023-05-10T00:29:33;2.90;;;1.30;;
69386;SDS011;56575;48.942;8.404;2023-05-10T00:31:58;2.23;;;1.20;;
69386;SDS011;56575;48.942;8.404;2023-05-10T00:34:24;1.80;;;1.20;;
69386;SDS011;56575;48.942;8.404;2023-05-10T00:36:49;2.37;;;1.30;;
69386;SDS011;56575;48.942;8.404;2023-05-10T00:39:15;3.63;;;1.70;;
69386;SDS011;56575;48.942;8.404;2023-05-10T00:41:40;4.13;;;1.52;;
69386;SDS011;56575;48.942;8.404;2023-05-10T00:44:06;3.77;;;1.50;;
69386;SDS011;56575;48.942;8.404;2023-05-10T00:46:31;4.17;;;1.40;;
69386;SDS011;56575;48.942;8.404;2023-05-10T00:48:57;2.88;;;1.60;;
69386;SDS011;56575;48.942;8.404;2023-05-10T00:51:22;4.70;;;1.77;;
69386;SDS011;56575;48.942;8.404;2023-05-10T00:53:48;3.57;;;1.80;;
69386;SDS011;56575;48.942;8.404;2023-05-10T00:56:15;3.37;;;1.90;;
69386;SDS011;56575;48.942;8.404;2023-05-10T00:58:40;3.88;;;2.00;;
69386;SDS011;56575;48.942;8.404;2023-05-10T01:01:06;4.53;;;2.20;;
69386;SDS011;56575;48.942;8.404;2023-05-10T01:03:34;3.58;;;2.10;;
69386;SDS011;56575;48.942;8.404;2023-05-10T01:06:00;4.47;;;2.10;;
69386;SDS011;56575;48.942;8.404;2023-05-10T01:08:26;6.28;;;2.20;;
69386;SDS011;56575;48.942;8.404;2023-05-10T01:10:52;3.50;;;2.03;;
69386;SDS011;56575;48.942;8.404;2023-05-10T01:13:33;4.85;;;2.00;;
69386;SDS011;56575;48.942;8.404;2023-05-10T01:16:02;6.20;;;2.43;;
69386;SDS011;56575;48.942;8.404;2023-05-10T01:18:29;4.88;;;2.30;;
69386;SDS011;56575;48.942;8.404;2023-05-10T01:21:03;6.53;;;2.45;;
69386;SDS011;56575;48.942;8.404;2023-05-10T01:43:17;4.53;;;2.23;;
69386;SDS011;56575;48.942;8.404;2023-05-10T01:46:07;3.47;;;2.00;;
69386;SDS011;56575;48.942;8.404;2023-05-10T01:48:48;4.82;;;2.00;;
69386;SDS011;56575;48.942;8.404;2023-05-10T01:51:19;4.30;;;1.95;;
69386;SDS011;56575;48.942;8.404;2023-05-10T01:53:48;3.75;;;2.10;;
69386;SDS011;56575;48.942;8.404;2023-05-10T01:56:16;3.80;;;2.07;;
69386;SDS011;56575;48.942;8.404;2023-05-10T01:58:44;3.78;;;1.90;;
69386;SDS011;56575;48.942;8.404;2023-05-10T02:01:13;4.25;;;1.77;;
69386;SDS011;56575;48.942;8.404;2023-05-10T02:03:39;5.25;;;1.60;;
69386;SDS011;56575;48.942;8.404;2023-05-10T02:06:07;5.15;;;1.90;;
69386;SDS011;56575;48.942;8.404;2023-05-10T02:08:35;5.03;;;1.97;;
69386;SDS011;56575;48.942;8.404;2023-05-10T02:11:02;4.10;;;2.10;;
69386;SDS011;56575;48.942;8.404;2023-05-10T02:13:28;3.78;;;2.10;;
69386;SDS011;56575;48.942;8.404;2023-05-10T02:15:56;4.00;;;2.08;;
69386;SDS011;56575;48.942;8.404;2023-05-10T02:18:22;4.00;;;2.17;;
69386;SDS011;56575;48.942;8.404;2023-05-10T02:20:49;3.90;;;2.20;;
69386;SDS011;56575;48.942;8.404;2023-05-10T02:23:16;7.00;;;2.28;;
69386;SDS011;56575;48.942;8.404;2023-05-10T02:25:43;4.93;;;2.20;;
69386;SDS011;56575;48.942;8.404;2023-05-10T02:28:09;4.25;;;2.20;;
69386;SDS011;56575;48.942;8.404;2023-05-10T02:30:36;4.00;;;2.20;;
69386;SDS011;56575;48.942;8.404;2023-05-10T02:33:03;3.70;;;2.33;;
69386;SDS011;56575;48.942;8.404;2023-05-10T02:35:30;5.82;;;2.50;;
69386;SDS011;56575;48.942;8.404;2023-05-10T02:37:58;5.63;;;2.40;;
69386;SDS011;56575;48.942;8.404;2023-05-10T02:40:24;4.35;;;2.50;;
69386;SDS011;56575;48.942;8.404;2023-05-10T02:42:52;5.38;;;2.80;;
69386;SDS011;56575;48.942;8.404;2023-05-10T02:45:20;5.27;;;2.53;;
69386;SDS011;56575;48.942;8.404;2023-05-10T02:47:48;5.15;;;2.75;;
69386;SDS011;56575;48.942;8.404;2023-05-10T02:50:13;6.20;;;3.20;;
69386;SDS011;56575;48.942;8.404;2023-05-10T02:52:40;5.90;;;3.10;;
69386;SDS011;56575;48.942;8.404;2023-05-10T02:55:09;5.18;;;2.65;;
69386;SDS011;56575;48.942;8.404;2023-05-10T02:57:38;4.53;;;2.78;;
69386;SDS011;56575;48.942;8.404;2023-05-10T03:00:11;8.23;;;3.05;;
69386;SDS011;56575;48.942;8.404;2023-05-10T03:02:36;4.73;;;2.40;;
69386;SDS011;56575;48.942;8.404;2023-05-10T03:05:02;5.00;;;2.60;;
69386;SDS011;56575;48.942;8.404;2023-05-10T03:07:28;5.63;;;2.30;;
69386;SDS011;56575;48.942;8.404;2023-05-10T03:09:54;4.43;;;2.50;;
69386;SDS011;56575;48.942;8.404;2023-05-10T03:12:58;4.17;;;2.70;;
69386;SDS011;56575;48.942;8.404;2023-05-10T03:18:07;5.97;;;2.97;;
69386;SDS011;56575;48.942;8.404;2023-05-10T03:20:41;4.93;;;2.87;;
69386;SDS011;56575;48.942;8.404;2023-05-10T03:23:13;5.05;;;3.17;;
69386;SDS011;56575;48.942;8.404;2023-05-10T03:25:44;6.93;;;3.80;;
69386;SDS011;56575;48.942;8.404;2023-05-10T03:28:13;6.57;;;3.10;;
69386;SDS011;56575;48.942;8.404;2023-05-10T03:30:40;5.15;;;2.55;;
69386;SDS011;56575;48.942;8.404;2023-05-10T03:33:07;4.90;;;2.90;;
69386;SDS011;56575;48.942;8.404;2023-05-10T03:35:33;4.40;;;2.80;;
69386;SDS011;56575;48.942;8.404;2023-05-10T03:37:58;4.93;;;2.43;;
69386;SDS011;56575;48.942;8.404;2023-05-10T03:40:24;5.33;;;2.73;;
69386;SDS011;56575;48.942;8.404;2023-05-10T03:42:51;4.35;;;2.30;;
69386;SDS011;56575;48.942;8.404;2023-05-10T03:45:16;4.80;;;2.20;;
69386;SDS011;56575;48.942;8.404;2023-05-10T03:47:41;5.03;;;2.77;;
69386;SDS011;56575;48.942;8.404;2023-05-10T03:50:07;4.23;;;2.10;;
69386;SDS011;56575;48.942;8.404;2023-05-10T03:52:32;5.80;;;2.00;;
69386;SDS011;56575;48.942;8.404;2023-05-10T03:54:58;4.03;;;1.97;;
69386;SDS011;56575;48.942;8.404;2023-05-10T03:57:23;3.27;;;1.87;;
69386;SDS011;56575;48.942;8.404;2023-05-10T03:59:49;4.38;;;1.80;;
69386;SDS011;56575;48.942;8.404;2023-05-10T04:02:15;4.73;;;2.00;;
69386;SDS011;56575;48.942;8.404;2023-05-10T04:04:40;2.83;;;1.80;;
69386;SDS011;56575;48.942;8.404;2023-05-10T04:07:05;3.63;;;1.80;;
69386;SDS011;56575;48.942;8.404;2023-05-10T04:09:31;3.00;;;1.80;;
69386;SDS011;56575;48.942;8.404;2023-05-10T04:11:58;2.92;;;1.80;;
69386;SDS011;56575;48.942;8.404;2023-05-10T04:14:25;4.13;;;2.25;;
69386;SDS011;56575;48.942;8.404;2023-05-10T04:16:50;4.17;;;2.33;;
69386;SDS011;56575;48.942;8.404;2023-05-10T04:19:15;3.70;;;2.10;;
69386;SDS011;56575;48.942;8.404;2023-05-10T04:21:41;4.27;;;2.00;;
69386;SDS011;56575;48.942;8.404;2023-05-10T04:24:06;3.83;;;1.97;;
69386;SDS011;56575;48.942;8.404;2023-05-10T04:26:31;3.30;;;2.00;;
69386;SDS011;56575;48.942;8.404;2023-05-10T04:28:57;4.37;;;2.20;;
69386;SDS011;56575;48.942;8.404;2023-05-10T04:31:22;4.47;;;1.97;;
69386;SDS011;56575;48.942;8.404;2023-05-10T04:33:47;2.70;;;1.90;;
69386;SDS011;56575;48.942;8.404;2023-05-10T04:36:13;3.87;;;2.07;;
69386;SDS011;56575;48.942;8.404;2023-05-10T04:38:38;5.28;;;2.17;;
69386;SDS011;56575;48.942;8.404;2023-05-10T04:41:04;4.83;;;2.10;;
69386;SDS011;56575;48.942;8.404;2023-05-10T04:43:31;3.63;;;2.25;;
69386;SDS011;56575;48.942;8.404;2023-05-10T04:45:56;5.37;;;2.60;;
69386;SDS011;56575;48.942;8.404;2023-05-10T04:48:22;3.50;;;2.20;;
69386;SDS011;56575;48.942;8.404;2023-05-10T04:50:47;4.70;;;2.70;;
69386;SDS011;56575;48.942;8.404;2023-05-10T04:53:13;4.60;;;2.80;;
69386;SDS011;56575;48.942;8.404;2023-05-10T04:55:38;4.33;;;2.30;;
69386;SDS011;56575;48.942;8.404;2023-05-10T04:58:03;4.63;;;2.57;;
69386;SDS011;56575;48.942;8.404;2023-05-10T05:00:29;4.22;;;2.58;;
69386;SDS011;56575;48.942;8.404;2023-05-10T05:02:54;4.50;;;2.40;;
69386;SDS011;56575;48.942;8.404;2023-05-10T05:05:20;4.53;;;2.80;;
69386;SDS011;56575;48.942;8.404;2023-05-10T05:07:45;6.13;;;2.77;;
69386;SDS011;56575;48.942;8.404;2023-05-10T05:10:11;7.55;;;3.03;;
69386;SDS011;56575;48.942;8.404;2023-05-10T05:12:36;4.90;;;2.83;;
69386;SDS011;56575;48.942;8.404;2023-05-10T05:15:01;5.80;;;3.03;;
69386;SDS011;56575;48.942;8.404;2023-05-10T05:17:27;6.55;;;3.30;;
69386;SDS011;56575;48.942;8.404;2023-05-10T05:19:55;6.82;;;3.50;;
69386;SDS011;56575;48.942;8.404;2023-05-10T05:22:20;7.73;;;2.87;;
69386;SDS011;56575;48.942;8.404;2023-05-10T05:24:52;6.85;;;2.88;;
69386;SDS011;56575;48.942;8.404;2023-05-10T05:27:18;5.47;;;3.00;;
69386;SDS011;56575;48.942;8.404;2023-05-10T05:29:45;6.53;;;2.67;;
69386;SDS011;56575;48.942;8.404;2023-05-10T05:32:11;5.07;;;2.77;;
69386;SDS011;56575;48.942;8.404;2023-05-10T05:34:36;4.87;;;2.53;;
69386;SDS011;56575;48.942;8.404;2023-05-10T05:37:02;4.80;;;2.73;;
69386;SDS011;56575;48.942;8.404;2023-05-10T05:39:27;5.80;;;2.30;;
69386;SDS011;56575;48.942;8.404;2023-05-10T05:41:52;4.23;;;2.30;;
69386;SDS011;56575;48.942;8.404;2023-05-10T05:44:18;3.57;;;2.20;;
69386;SDS011;56575;48.942;8.404;2023-05-10T05:46:43;4.57;;;2.17;;
69386;SDS011;56575;48.942;8.404;2023-05-10T05:49:08;4.65;;;2.53;;
69386;SDS011;56575;48.942;8.404;2023-05-10T05:51:34;3.40;;;1.97;;
69386;SDS011;56575;48.942;8.404;2023-05-10T05:54:00;5.43;;;2.10;;
69386;SDS011;56575;48.942;8.404;2023-05-10T05:56:26;6.40;;;2.40;;
69386;SDS011;56575;48.942;8.404;2023-05-10T05:58:51;4.35;;;2.30;;
69386;SDS011;56575;48.942;8.404;2023-05-10T06:01:16;3.87;;;2.20;;
69386;SDS011;56575;48.942;8.404;2023-05-10T06:03:42;3.90;;;2.23;;
69386;SDS011;56575;48.942;8.404;2023-05-10T06:06:07;5.33;;;2.60;;
69386;SDS011;56575;48.942;8.404;2023-05-10T06:08:33;5.53;;;2.90;;
69386;SDS011;56575;48.942;8.404;2023-05-10T06:10:59;4.70;;;2.50;;
69386;SDS011;56575;48.942;8.404;2023-05-10T06:13:24;4.20;;;2.38;;
69386;SDS011;56575;48.942;8.404;2023-05-10T06:15:53;4.03;;;2.35;;
69386;SDS011;56575;48.942;8.404;2023-05-10T06:18:19;4.63;;;2.50;;
69386;SDS011;56575;48.942;8.404;2023-05-10T06:20:44;5.43;;;2.33;;
69386;SDS011;56575;48.942;8.404;2023-05-10T06:23:09;5.23;;;2.40;;
69386;SDS011;56575;48.942;8.404;2023-05-10T06:25:35;3.87;;;2.20;;
69386;SDS011;56575;48.942;8.404;2023-05-10T06:28:00;3.70;;;2.38;;
69386;SDS011;56575;48.942;8.404;2023-05-10T06:30:26;4.60;;;2.10;;
69386;SDS011;56575;48.942;8.404;2023-05-10T06:32:53;4.13;;;2.10;;
69386;SDS011;56575;48.942;8.404;2023-05-10T06:35:19;4.78;;;1.90;;
69386;SDS011;56575;48.942;8.404;2023-05-10T06:37:44;3.40;;;1.63;;
69386;SDS011;56575;48.942;8.404;2023-05-10T06:40:10;3.60;;;2.03;;
69386;SDS011;56575;48.942;8.404;2023-05-10T06:42:35;2.83;;;1.65;;
69386;SDS011;56575;48.942;8.404;2023-05-10T06:45:01;3.17;;;1.60;;
69386;SDS011;56575;48.942;8.404;2023-05-10T06:47:27;3.40;;;1.70;;
69386;SDS011;56575;48.942;8.404;2023-05-10T06:49:52;2.63;;;1.47;;
69386;SDS011;56575;48.942;8.404;2023-05-10T06:52:18;2.43;;;1.70;;
69386;SDS011;56575;48.942;8.404;2023-05-10T06:54:43;3.05;;;1.63;;
69386;SDS011;56575;48.942;8.404;2023-05-10T06:57:09;4.27;;;1.50;;
69386;SDS011;56575;48.942;8.404;2023-05-10T06:59:34;4.40;;;1.40;;
69386;SDS011;56575;48.942;8.404;2023-05-10T07:02:01;1.77;;;1.00;;
69386;SDS011;56575;48.942;8.404;2023-05-10T07:04:27;2.95;;;1.00;;
69386;SDS011;56575;48.942;8.404;2023-05-10T07:06:52;1.90;;;1.07;;
69386;SDS011;56575;48.942;8.404;2023-05-10T07:09:18;3.10;;;1.07;;
69386;SDS011;56575;48.942;8.404;2023-05-10T07:11:43;2.30;;;1.02;;
69386;SDS011;56575;48.942;8.404;2023-05-10T07:14:08;1.60;;;1.13;;
69386;SDS011;56575;48.942;8.404;2023-05-10T07:16:34;5.77;;;1.00;;
69386;SDS011;56575;48.942;8.404;2023-05-10T07:18:59;2.95;;;1.08;;
69386;SDS011;56575;48.942;8.404;2023-05-10T07:21:25;3.20;;;1.10;;
69386;SDS011;56575;48.942;8.404;2023-05-10T07:23:53;2.08;;;1.23;;
69386;SDS011;56575;48.942;8.404;2023-05-10T07:26:18;1.80;;;1.03;;
69386;SDS011;56575;48.942;8.404;2023-05-10T07:28:44;2.93;;;0.80;;
69386;SDS011;56575;48.942;8.404;2023-05-10T07:31:09;1.88;;;0.93;;
69386;SDS011;56575;48.942;8.404;2023-05-10T07:33:35;0.83;;;0.50;;
69386;SDS011;56575;48.942;8.404;2023-05-10T07:36:00;1.80;;;0.83;;
69386;SDS011;56575;48.942;8.404;2023-05-10T07:38:26;1.63;;;0.90;;
69386;SDS011;56575;48.942;8.404;2023-05-10T07:40:51;2.57;;;0.80;;
69386;SDS011;56575;48.942;8.404;2023-05-10T07:43:17;3.93;;;0.80;;
69386;SDS011;56575;48.942;8.404;2023-05-10T07:45:42;1.93;;;0.80;;
69386;SDS011;56575;48.942;8.404;2023-05-10T07:48:08;1.65;;;0.80;;
69386;SDS011;56575;48.942;8.404;2023-05-10T07:50:33;1.50;;;0.60;;
69386;SDS011;56575;48.942;8.404;2023-05-10T07:52:59;1.30;;;0.60;;
69386;SDS011;56575;48.942;8.404;2023-05-10T07:55:24;1.15;;;0.60;;
69386;SDS011;56575;48.942;8.404;2023-05-10T07:57:49;1.23;;;0.70;;
69386;SDS011;56575;48.942;8.404;2023-05-10T08:00:16;1.07;;;0.67;;
69386;SDS011;56575;48.942;8.404;2023-05-10T08:02:43;1.92;;;0.70;;
69386;SDS011;56575;48.942;8.404;2023-05-10T08:05:08;3.03;;;0.80;;
69386;SDS011;56575;48.942;8.404;2023-05-10T08:07:34;1.17;;;0.60;;
69386;SDS011;56575;48.942;8.404;2023-05-10T08:10:00;2.07;;;0.67;;
69386;SDS011;56575;48.942;8.404;2023-05-10T08:12:25;3.75;;;0.60;;
69386;SDS011;56575;48.942;8.404;2023-05-10T08:14:51;1.70;;;0.50;;
69386;SDS011;56575;48.942;8.404;2023-05-10T08:17:16;1.63;;;0.50;;
69386;SDS011;56575;48.942;8.404;2023-05-10T08:19:41;1.53;;;0.60;;
69386;SDS011;56575;48.942;8.404;2023-05-10T08:22:07;1.97;;;0.60;;
69386;SDS011;56575;48.942;8.404;2023-05-10T08:24:32;3.90;;;0.60;;
69386;SDS011;56575;48.942;8.404;2023-05-10T08:26:59;1.23;;;0.60;;
69386;SDS011;56575;48.942;8.404;2023-05-10T08:29:25;4.13;;;0.70;;
69386;SDS011;56575;48.942;8.404;2023-05-10T08:31:51;2.50;;;0.50;;
69386;SDS011;56575;48.942;8.404;2023-05-10T08:34:16;1.93;;;0.50;;
69386;SDS011;56575;48.942;8.404;2023-05-10T08:36:41;3.13;;;0.50;;
69386;SDS011;56575;48.942;8.404;2023-05-10T08:39:07;1.67;;;0.65;;
69386;SDS011;56575;48.942;8.404;2023-05-10T08:41:33;2.20;;;0.70;;
69386;SDS011;56575;48.942;8.404;2023-05-10T08:43:59;1.92;;;0.60;;
69386;SDS011;56575;48.942;8.404;2023-05-10T08:46:29;1.73;;;0.60;;
69386;SDS011;56575;48.942;8.404;2023-05-10T08:48:58;2.90;;;0.70;;
69386;SDS011;56575;48.942;8.404;2023-05-10T08:51:26;2.03;;;0.75;;
69386;SDS011;56575;48.942;8.404;2023-05-10T08:53:55;2.53;;;0.80;;
69386;SDS011;56575;48.942;8.404;2023-05-10T08:56:21;3.10;;;0.68;;
69386;SDS011;56575;48.942;8.404;2023-05-10T08:58:47;1.97;;;0.60;;
69386;SDS011;56575;48.942;8.404;2023-05-10T09:01:13;1.33;;;0.65;;
69386;SDS011;56575;48.942;8.404;2023-05-10T09:03:41;5.28;;;1.38;;
69386;SDS011;56575;48.942;8.404;2023-05-10T09:06:07;1.53;;;0.60;;
69386;SDS011;56575;48.942;8.404;2023-05-10T09:08:33;4.35;;;0.80;;
69386;SDS011;56575;48.942;8.404;2023-05-10T09:10:58;2.30;;;0.70;;
69386;SDS011;56575;48.942;8.404;2023-05-10T09:13:26;1.75;;;0.70;;
69386;SDS011;56575;48.942;8.404;2023-05-10T09:15:52;2.15;;;0.70;;
69386;SDS011;56575;48.942;8.404;2023-05-10T09:18:18;1.75;;;0.82;;
69386;SDS011;56575;48.942;8.404;2023-05-10T09:20:43;4.00;;;1.07;;
69386;SDS011;56575;48.942;8.404;2023-05-10T09:23:09;2.17;;;0.80;;
69386;SDS011;56575;48.942;8.404;2023-05-10T09:25:34;3.70;;;1.00;;
69386;SDS011;56575;48.942;8.404;2023-05-10T09:28:00;2.30;;;0.60;;
69386;SDS011;56575;48.942;8.404;2023-05-10T09:30:27;1.20;;;0.77;;
69386;SDS011;56575;48.942;8.404;2023-05-10T09:32:54;3.13;;;0.70;;
69386;SDS011;56575;48.942;8.404;2023-05-10T09:35:21;2.60;;;0.90;;
69386;SDS011;56575;48.942;8.404;2023-05-10T09:37:52;2.07;;;0.80;;
69386;SDS011;56575;48.942;8.404;2023-05-10T09:40:23;3.47;;;0.90;;
69386;SDS011;56575;48.942;8.404;2023-05-10T09:45:18;1.63;;;0.80;;
69386;SDS011;56575;48.942;8.404;2023-05-10T09:47:43;3.20;;;1.40;;
69386;SDS011;56575;48.942;8.404;2023-05-10T09:50:10;1.77;;;1.27;;
69386;SDS011;56575;48.942;8.404;2023-05-10T09:55:22;2.50;;;1.10;;
69386;SDS011;56575;48.942;8.404;2023-05-10T09:57:48;4.75;;;1.30;;
69386;SDS011;56575;48.942;8.404;2023-05-10T10:00:23;4.55;;;1.27;;
69386;SDS011;56575;48.942;8.404;2023-05-10T10:02:54;3.30;;;1.10;;
69386;SDS011;56575;48.942;8.404;2023-05-10T10:05:21;2.63;;;1.08;;
69386;SDS011;56575;48.942;8.404;2023-05-10T10:07:53;3.67;;;1.10;;
69386;SDS011;56575;48.942;8.404;2023-05-10T10:10:19;1.73;;;1.00;;
69386;SDS011;56575;48.942;8.404;2023-05-10T10:12:44;2.70;;;1.20;;
69386;SDS011;56575;48.942;8.404;2023-05-10T10:15:10;2.27;;;0.80;;
69386;SDS011;56575;48.942;8.404;2023-05-10T10:17:36;6.73;;;1.47;;
69386;SDS011;56575;48.942;8.404;2023-05-10T10:20:03;3.40;;;1.40;;
69386;SDS011;56575;48.942;8.404;2023-05-10T10:22:28;3.10;;;1.38;;
69386;SDS011;56575;48.942;8.404;2023-05-10T10:24:54;2.23;;;1.30;;
69386;SDS011;56575;48.942;8.404;2023-05-10T10:27:23;6.40;;;1.38;;
69386;SDS011;56575;48.942;8.404;2023-05-10T10:29:59;3.22;;;1.40;;
69386;SDS011;56575;48.942;8.404;2023-05-10T10:32:54;3.07;;;1.30;;
69386;SDS011;56575;48.942;8.404;2023-05-10T10:35:45;3.00;;;1.50;;
69386;SDS011;56575;48.942;8.404;2023-05-10T10:38:12;2.80;;;1.85;;
69386;SDS011;56575;48.942;8.404;2023-05-10T10:40:38;4.50;;;1.92;;
69386;SDS011;56575;48.942;8.404;2023-05-10T10:46:09;3.20;;;1.98;;
69386;SDS011;56575;48.942;8.404;2023-05-10T10:48:47;4.68;;;2.20;;
69386;SDS011;56575;48.942;8.404;2023-05-10T10:51:13;3.90;;;2.10;;
69386;SDS011;56575;48.942;8.404;2023-05-10T10:53:39;2.90;;;2.03;;
69386;SDS011;56575;48.942;8.404;2023-05-10T10:56:09;4.68;;;2.08;;
69386;SDS011;56575;48.942;8.404;2023-05-10T10:58:38;2.72;;;1.42;;
69386;SDS011;56575;48.942;8.404;2023-05-10T11:03:37;2.45;;;1.60;;
69386;SDS011;56575;48.942;8.404;2023-05-10T11:06:02;4.30;;;1.63;;
69386;SDS011;56575;48.942;8.404;2023-05-10T11:08:31;7.63;;;1.60;;
69386;SDS011;56575;48.942;8.404;2023-05-10T11:16:16;3.97;;;1.42;;
69386;SDS011;56575;48.942;8.404;2023-05-10T11:18:52;2.20;;;1.30;;
69386;SDS011;56575;48.942;8.404;2023-05-10T11:21:29;4.13;;;1.20;;
69386;SDS011;56575;48.942;8.404;2023-05-10T11:23:56;1.73;;;1.00;;
69386;SDS011;56575;48.942;8.404;2023-05-10T11:26:30;3.65;;;1.00;;
69386;SDS011;56575;48.942;8.404;2023-05-10T11:28:57;3.08;;;1.00;;
69386;SDS011;56575;48.942;8.404;2023-05-10T11:31:25;4.03;;;1.10;;
69386;SDS011;56575;48.942;8.404;2023-05-10T11:33:53;3.67;;;0.90;;
69386;SDS011;56575;48.942;8.404;2023-05-10T11:36:21;3.60;;;1.10;;
69386;SDS011;56575;48.942;8.404;2023-05-10T11:39:07;1.60;;;0.80;;
69386;SDS011;56575;48.942;8.404;2023-05-10T11:41:32;1.30;;;0.70;;
69386;SDS011;56575;48.942;8.404;2023-05-10T11:43:58;2.53;;;0.70;;
69386;SDS011;56575;48.942;8.404;2023-05-10T11:46:24;2.17;;;0.73;;
69386;SDS011;56575;48.942;8.404;2023-05-10T11:48:56;5.50;;;0.80;;
69386;SDS011;56575;48.942;8.404;2023-05-10T11:51:26;1.60;;;1.00;;
69386;SDS011;56575;48.942;8.404;2023-05-10T11:53:52;3.30;;;0.70;;
69386;SDS011;56575;48.942;8.404;2023-05-10T11:56:19;1.83;;;0.63;;
69386;SDS011;56575;48.942;8.404;2023-05-10T11:58:45;1.60;;;0.80;;
69386;SDS011;56575;48.942;8.404;2023-05-10T12:01:16;1.83;;;0.60;;
69386;SDS011;56575;48.942;8.404;2023-05-10T12:03:42;1.08;;;0.50;;
69386;SDS011;56575;48.942;8.404;2023-05-10T12:06:07;3.03;;;0.80;;
69386;SDS011;56575;48.942;8.404;2023-05-10T12:08:33;1.50;;;0.60;;
69386;SDS011;56575;48.942;8.404;2023-05-10T12:11:05;1.70;;;0.60;;
69386;SDS011;56575;48.942;8.404;2023-05-10T12:13:32;2.65;;;0.70;;
69386;SDS011;56575;48.942;8.404;2023-05-10T12:16:12;4.70;;;0.82;;
69386;SDS011;56575;48.942;8.404;2023-05-10T12:18:44;1.83;;;0.50;;
69386;SDS011;56575;48.942;8.404;2023-05-10T12:21:11;1.88;;;0.50;;
69386;SDS011;56575;48.942;8.404;2023-05-10T12:23:37;2.93;;;0.57;;
69386;SDS011;56575;48.942;8.404;2023-05-10T12:26:03;2.25;;;0.60;;
69386;SDS011;56575;48.942;8.404;2023-05-10T12:28:29;2.58;;;0.82;;
69386;SDS011;56575;48.942;8.404;2023-05-10T12:30:57;3.00;;;0.47;;
69386;SDS011;56575;48.942;8.404;2023-05-10T12:33:24;2.05;;;0.30;;
69386;SDS011;56575;48.942;8.404;2023-05-10T12:35:50;0.70;;;0.43;;
69386;SDS011;56575;48.942;8.404;2023-05-10T12:38:24;2.95;;;0.50;;
69386;SDS011;56575;48.942;8.404;2023-05-10T12:40:50;0.80;;;0.50;;
69386;SDS011;56575;48.942;8.404;2023-05-10T12:43:16;2.00;;;0.50;;
69386;SDS011;56575;48.942;8.404;2023-05-10T12:45:41;1.00;;;0.70;;
69386;SDS011;56575;48.942;8.404;2023-05-10T12:48:07;3.27;;;0.87;;
69386;SDS011;56575;48.942;8.404;2023-05-10T12:50:32;1.70;;;0.97;;
69386;SDS011;56575;48.942;8.404;2023-05-10T12:52:57;1.43;;;1.00;;
69386;SDS011;56575;48.942;8.404;2023-05-10T12:55:23;1.30;;;1.00;;
69386;SDS011;56575;48.942;8.404;2023-05-10T12:57:48;1.63;;;0.80;;
69386;SDS011;56575;48.942;8.404;2023-05-10T13:00:14;1.50;;;0.93;;
69386;SDS011;56575;48.942;8.404;2023-05-10T13:02:39;2.47;;;0.90;;
69386;SDS011;56575;48.942;8.404;2023-05-10T13:05:05;2.30;;;0.77;;
69386;SDS011;56575;48.942;8.404;2023-05-10T13:07:31;1.08;;;0.75;;
69386;SDS011;56575;48.942;8.404;2023-05-10T13:09:56;1.10;;;0.70;;
69386;SDS011;56575;48.942;8.404;2023-05-10T13:12:21;1.97;;;0.70;;
69386;SDS011;56575;48.942;8.404;2023-05-10T13:14:47;1.33;;;0.90;;
69386;SDS011;56575;48.942;8.404;2023-05-10T13:17:12;2.90;;;0.82;;
69386;SDS011;56575;48.942;8.404;2023-05-10T13:19:38;1.63;;;0.90;;
69386;SDS011;56575;48.942;8.404;2023-05-10T13:22:03;2.13;;;0.70;;
69386;SDS011;56575;48.942;8.404;2023-05-10T13:24:28;3.00;;;0.80;;
69386;SDS011;56575;48.942;8.404;2023-05-10T13:26:54;1.83;;;0.60;;
69386;SDS011;56575;48.942;8.404;2023-05-10T13:29:19;1.73;;;0.73;;
69386;SDS011;56575;48.942;8.404;2023-05-10T13:31:45;3.50;;;1.10;;
69386;SDS011;56575;48.942;8.404;2023-05-10T13:34:11;1.63;;;0.73;;
69386;SDS011;56575;48.942;8.404;2023-05-10T13:36:36;1.03;;;0.80;;
69386;SDS011;56575;48.942;8.404;2023-05-10T13:39:02;2.40;;;0.90;;
69386;SDS011;56575;48.942;8.404;2023-05-10T13:41:28;5.07;;;1.00;;
69386;SDS011;56575;48.942;8.404;2023-05-10T13:43:53;1.98;;;0.70;;
69386;SDS011;56575;48.942;8.404;2023-05-10T13:46:19;1.80;;;0.70;;
69386;SDS011;56575;48.942;8.404;2023-05-10T13:48:44;1.53;;;0.80;;
69386;SDS011;56575;48.942;8.404;2023-05-10T13:51:10;4.03;;;0.60;;
69386;SDS011;56575;48.942;8.404;2023-05-10T13:53:35;1.55;;;0.82;;
69386;SDS011;56575;48.942;8.404;2023-05-10T13:56:01;1.83;;;0.73;;
69386;SDS011;56575;48.942;8.404;2023-05-10T13:58:27;0.93;;;0.70;;
69386;SDS011;56575;48.942;8.404;2023-05-10T14:00:53;2.50;;;0.70;;
69386;SDS011;56575;48.942;8.404;2023-05-10T14:03:18;2.20;;;0.90;;
69386;SDS011;56575;48.942;8.404;2023-05-10T14:05:43;2.20;;;0.80;;
69386;SDS011;56575;48.942;8.404;2023-05-10T14:08:10;1.80;;;0.90;;
69386;SDS011;56575;48.942;8.404;2023-05-10T14:10:35;2.37;;;0.77;;
69386;SDS011;56575;48.942;8.404;2023-05-10T14:13:01;1.45;;;0.70;;
69386;SDS011;56575;48.942;8.404;2023-05-10T14:15:28;2.20;;;0.70;;
69386;SDS011;56575;48.942;8.404;2023-05-10T14:17:53;1.42;;;0.70;;
69386;SDS011;56575;48.942;8.404;2023-05-10T14:20:18;1.67;;;0.53;;
69386;SDS011;56575;48.942;8.404;2023-05-10T14:22:44;1.87;;;0.87;;
69386;SDS011;56575;48.942;8.404;2023-05-10T14:25:09;2.00;;;0.93;;
69386;SDS011;56575;48.942;8.404;2023-05-10T14:27:35;1.80;;;0.90;;
69386;SDS011;56575;48.942;8.404;2023-05-10T14:30:01;1.05;;;0.68;;
69386;SDS011;56575;48.942;8.404;2023-05-10T14:32:27;1.97;;;0.77;;
69386;SDS011;56575;48.942;8.404;2023-05-10T14:34:53;3.90;;;0.60;;
69386;SDS011;56575;48.942;8.404;2023-05-10T14:37:18;1.33;;;0.60;;
69386;SDS011;56575;48.942;8.404;2023-05-10T14:39:44;2.97;;;0.65;;
69386;SDS011;56575;48.942;8.404;2023-05-10T14:42:09;0.70;;;0.50;;
69386;SDS011;56575;48.942;8.404;2023-05-10T14:44:34;1.93;;;0.50;;
69386;SDS011;56575;48.942;8.404;2023-05-10T14:47:00;2.93;;;0.80;;
69386;SDS011;56575;48.942;8.404;2023-05-10T14:49:25;1.57;;;0.60;;
69386;SDS011;56575;48.942;8.404;2023-05-10T14:51:51;5.17;;;1.00;;
69386;SDS011;56575;48.942;8.404;2023-05-10T14:54:17;2.30;;;0.57;;
69386;SDS011;56575;48.942;8.404;2023-05-10T14:56:42;1.30;;;0.50;;
69386;SDS011;56575;48.942;8.404;2023-05-10T14:59:07;0.77;;;0.47;;
69386;SDS011;56575;48.942;8.404;2023-05-10T15:01:33;1.85;;;0.50;;
69386;SDS011;56575;48.942;8.404;2023-05-10T15:04:02;1.38;;;0.50;;
69386;SDS011;56575;48.942;8.404;2023-05-10T15:06:31;2.33;;;0.50;;
69386;SDS011;56575;48.942;8.404;2023-05-10T15:08:58;2.47;;;0.60;;
69386;SDS011;56575;48.942;8.404;2023-05-10T15:11:24;1.02;;;0.50;;
69386;SDS011;56575;48.942;8.404;2023-05-10T15:13:50;1.10;;;0.50;;
69386;SDS011;56575;48.942;8.404;2023-05-10T15:16:15;1.00;;;0.40;;
69386;SDS011;56575;48.942;8.404;2023-05-10T15:18:41;2.03;;;0.60;;
69386;SDS011;56575;48.942;8.404;2023-05-10T15:21:06;1.37;;;0.40;;
69386;SDS011;56575;48.942;8.404;2023-05-10T15:23:31;1.03;;;0.60;;